<?xml version="1.0" encoding="UTF-8" standalone="no" ?>
<gpx xmlns="http://www.topografix.com/GPX/1/1" xmlns:xsi="http://www.w3.org/2001/XMLSchema-instance" xsi:schemaLocation="http://www.topografix.com/GPX/1/1 http://www.topografix.com/GPX/1/1/gpx.xsd" version="1.1" creator="VisuGPX - https://www.visugpx.com">
  <metadata>
    <name>Surprise à Lausanne</name>
    <desc><![CDATA[Projet de parcours]]></desc>
  </metadata>
  <trk>
    <name><![CDATA[SurpriseLausanne2013]]></name>
    <trkseg>
      <trkpt lat="46.52349" lon="6.61563">
        <ele>347.6</ele>
        <time>2013-11-27T14:22:40Z</time>
      </trkpt>
      <trkpt lat="46.52353" lon="6.6155">
        <ele>346.2</ele>
        <time>2013-11-27T14:23:00Z</time>
      </trkpt>
      <trkpt lat="46.52355" lon="6.61534">
        <ele>346.2</ele>
        <time>2013-11-27T14:23:04Z</time>
      </trkpt>
      <trkpt lat="46.52348" lon="6.61525">
        <ele>345.7</ele>
        <time>2013-11-27T14:23:10Z</time>
      </trkpt>
      <trkpt lat="46.52343" lon="6.61511">
        <ele>345.2</ele>
        <time>2013-11-27T14:23:14Z</time>
      </trkpt>
      <trkpt lat="46.52334" lon="6.61498">
        <ele>343.8</ele>
        <time>2013-11-27T14:23:20Z</time>
      </trkpt>
      <trkpt lat="46.52323" lon="6.61495">
        <ele>343.8</ele>
        <time>2013-11-27T14:23:23Z</time>
      </trkpt>
      <trkpt lat="46.52312" lon="6.61496">
        <ele>344.8</ele>
        <time>2013-11-27T14:23:26Z</time>
      </trkpt>
      <trkpt lat="46.52301" lon="6.61495">
        <ele>343.3</ele>
        <time>2013-11-27T14:23:30Z</time>
      </trkpt>
      <trkpt lat="46.5229" lon="6.61498">
        <ele>342.9</ele>
        <time>2013-11-27T14:23:33Z</time>
      </trkpt>
      <trkpt lat="46.5228" lon="6.61499">
        <ele>343.3</ele>
        <time>2013-11-27T14:23:36Z</time>
      </trkpt>
      <trkpt lat="46.52269" lon="6.61502">
        <ele>344.3</ele>
        <time>2013-11-27T14:23:40Z</time>
      </trkpt>
      <trkpt lat="46.52258" lon="6.61506">
        <ele>344.3</ele>
        <time>2013-11-27T14:23:44Z</time>
      </trkpt>
      <trkpt lat="46.52247" lon="6.6151">
        <ele>341.9</ele>
        <time>2013-11-27T14:23:48Z</time>
      </trkpt>
      <trkpt lat="46.52236" lon="6.61515">
        <ele>342.4</ele>
        <time>2013-11-27T14:23:51Z</time>
      </trkpt>
      <trkpt lat="46.52227" lon="6.61521">
        <ele>341.4</ele>
        <time>2013-11-27T14:23:54Z</time>
      </trkpt>
      <trkpt lat="46.52217" lon="6.61526">
        <ele>342.9</ele>
        <time>2013-11-27T14:23:58Z</time>
      </trkpt>
      <trkpt lat="46.52209" lon="6.61533">
        <ele>340</ele>
        <time>2013-11-27T14:24:01Z</time>
      </trkpt>
      <trkpt lat="46.52199" lon="6.61541">
        <ele>342.4</ele>
        <time>2013-11-27T14:24:05Z</time>
      </trkpt>
      <trkpt lat="46.52187" lon="6.61548">
        <ele>343.3</ele>
        <time>2013-11-27T14:24:09Z</time>
      </trkpt>
      <trkpt lat="46.52179" lon="6.61554">
        <ele>340.9</ele>
        <time>2013-11-27T14:24:13Z</time>
      </trkpt>
      <trkpt lat="46.52169" lon="6.61562">
        <ele>343.3</ele>
        <time>2013-11-27T14:24:17Z</time>
      </trkpt>
      <trkpt lat="46.52157" lon="6.61568">
        <ele>344.8</ele>
        <time>2013-11-27T14:24:21Z</time>
      </trkpt>
      <trkpt lat="46.52147" lon="6.61572">
        <ele>344.3</ele>
        <time>2013-11-27T14:24:25Z</time>
      </trkpt>
      <trkpt lat="46.52136" lon="6.61577">
        <ele>343.3</ele>
        <time>2013-11-27T14:24:29Z</time>
      </trkpt>
      <trkpt lat="46.52125" lon="6.6158">
        <ele>345.7</ele>
        <time>2013-11-27T14:24:33Z</time>
      </trkpt>
      <trkpt lat="46.5212" lon="6.6157">
        <ele>345.7</ele>
        <time>2013-11-27T14:24:37Z</time>
      </trkpt>
      <trkpt lat="46.5212" lon="6.61557">
        <ele>346.2</ele>
        <time>2013-11-27T14:24:41Z</time>
      </trkpt>
      <trkpt lat="46.52122" lon="6.6154">
        <ele>346.2</ele>
        <time>2013-11-27T14:24:45Z</time>
      </trkpt>
      <trkpt lat="46.52124" lon="6.61525">
        <ele>344.3</ele>
        <time>2013-11-27T14:24:49Z</time>
      </trkpt>
      <trkpt lat="46.52127" lon="6.61509">
        <ele>344.3</ele>
        <time>2013-11-27T14:24:53Z</time>
      </trkpt>
      <trkpt lat="46.52135" lon="6.61496">
        <ele>342.9</ele>
        <time>2013-11-27T14:24:57Z</time>
      </trkpt>
      <trkpt lat="46.52146" lon="6.61487">
        <ele>341.9</ele>
        <time>2013-11-27T14:25:01Z</time>
      </trkpt>
      <trkpt lat="46.52152" lon="6.61475">
        <ele>340.9</ele>
        <time>2013-11-27T14:25:05Z</time>
      </trkpt>
      <trkpt lat="46.5216" lon="6.61457">
        <ele>340</ele>
        <time>2013-11-27T14:25:10Z</time>
      </trkpt>
      <trkpt lat="46.52169" lon="6.61446">
        <ele>338</ele>
        <time>2013-11-27T14:25:14Z</time>
      </trkpt>
      <trkpt lat="46.52176" lon="6.61438">
        <ele>338</ele>
        <time>2013-11-27T14:25:17Z</time>
      </trkpt>
      <trkpt lat="46.52184" lon="6.61423">
        <ele>337.1</ele>
        <time>2013-11-27T14:25:21Z</time>
      </trkpt>
      <trkpt lat="46.52194" lon="6.61414">
        <ele>337.6</ele>
        <time>2013-11-27T14:25:25Z</time>
      </trkpt>
      <trkpt lat="46.52202" lon="6.61405">
        <ele>337.6</ele>
        <time>2013-11-27T14:25:29Z</time>
      </trkpt>
      <trkpt lat="46.52213" lon="6.61396">
        <ele>335.6</ele>
        <time>2013-11-27T14:25:33Z</time>
      </trkpt>
      <trkpt lat="46.52221" lon="6.61381">
        <ele>337.6</ele>
        <time>2013-11-27T14:25:37Z</time>
      </trkpt>
      <trkpt lat="46.52228" lon="6.61368">
        <ele>336.1</ele>
        <time>2013-11-27T14:25:41Z</time>
      </trkpt>
      <trkpt lat="46.52236" lon="6.61356">
        <ele>336.1</ele>
        <time>2013-11-27T14:25:45Z</time>
      </trkpt>
      <trkpt lat="46.52244" lon="6.61345">
        <ele>335.6</ele>
        <time>2013-11-27T14:25:49Z</time>
      </trkpt>
      <trkpt lat="46.52253" lon="6.61332">
        <ele>335.6</ele>
        <time>2013-11-27T14:25:53Z</time>
      </trkpt>
      <trkpt lat="46.52262" lon="6.61321">
        <ele>334.7</ele>
        <time>2013-11-27T14:25:57Z</time>
      </trkpt>
      <trkpt lat="46.5227" lon="6.61307">
        <ele>335.6</ele>
        <time>2013-11-27T14:26:01Z</time>
      </trkpt>
      <trkpt lat="46.52278" lon="6.61294">
        <ele>334.7</ele>
        <time>2013-11-27T14:26:05Z</time>
      </trkpt>
      <trkpt lat="46.52286" lon="6.61283">
        <ele>334.2</ele>
        <time>2013-11-27T14:26:09Z</time>
      </trkpt>
      <trkpt lat="46.52291" lon="6.61271">
        <ele>334.2</ele>
        <time>2013-11-27T14:26:13Z</time>
      </trkpt>
      <trkpt lat="46.52298" lon="6.61256">
        <ele>333.2</ele>
        <time>2013-11-27T14:26:17Z</time>
      </trkpt>
      <trkpt lat="46.52303" lon="6.61241">
        <ele>332.8</ele>
        <time>2013-11-27T14:26:21Z</time>
      </trkpt>
      <trkpt lat="46.52308" lon="6.61226">
        <ele>330.4</ele>
        <time>2013-11-27T14:26:25Z</time>
      </trkpt>
      <trkpt lat="46.52316" lon="6.61213">
        <ele>332.8</ele>
        <time>2013-11-27T14:26:29Z</time>
      </trkpt>
      <trkpt lat="46.52321" lon="6.612">
        <ele>332.8</ele>
        <time>2013-11-27T14:26:32Z</time>
      </trkpt>
      <trkpt lat="46.52326" lon="6.61188">
        <ele>331.3</ele>
        <time>2013-11-27T14:26:35Z</time>
      </trkpt>
      <trkpt lat="46.52331" lon="6.61172">
        <ele>331.8</ele>
        <time>2013-11-27T14:26:39Z</time>
      </trkpt>
      <trkpt lat="46.52334" lon="6.61153">
        <ele>330.8</ele>
        <time>2013-11-27T14:26:43Z</time>
      </trkpt>
      <trkpt lat="46.52339" lon="6.6114">
        <ele>330.4</ele>
        <time>2013-11-27T14:26:46Z</time>
      </trkpt>
      <trkpt lat="46.52344" lon="6.61124">
        <ele>329.9</ele>
        <time>2013-11-27T14:26:50Z</time>
      </trkpt>
      <trkpt lat="46.52349" lon="6.61108">
        <ele>329.4</ele>
        <time>2013-11-27T14:26:55Z</time>
      </trkpt>
      <trkpt lat="46.52353" lon="6.61089">
        <ele>328.9</ele>
        <time>2013-11-27T14:27:01Z</time>
      </trkpt>
      <trkpt lat="46.52359" lon="6.61077">
        <ele>329.4</ele>
        <time>2013-11-27T14:27:04Z</time>
      </trkpt>
      <trkpt lat="46.52366" lon="6.61067">
        <ele>328.9</ele>
        <time>2013-11-27T14:27:07Z</time>
      </trkpt>
      <trkpt lat="46.52369" lon="6.61054">
        <ele>328</ele>
        <time>2013-11-27T14:27:10Z</time>
      </trkpt>
      <trkpt lat="46.52376" lon="6.61035">
        <ele>326</ele>
        <time>2013-11-27T14:27:14Z</time>
      </trkpt>
      <trkpt lat="46.5238" lon="6.61022">
        <ele>327.5</ele>
        <time>2013-11-27T14:27:18Z</time>
      </trkpt>
      <trkpt lat="46.52387" lon="6.61005">
        <ele>326.5</ele>
        <time>2013-11-27T14:27:23Z</time>
      </trkpt>
      <trkpt lat="46.52389" lon="6.60992">
        <ele>326.5</ele>
        <time>2013-11-27T14:27:26Z</time>
      </trkpt>
      <trkpt lat="46.52398" lon="6.60975">
        <ele>326</ele>
        <time>2013-11-27T14:27:30Z</time>
      </trkpt>
      <trkpt lat="46.52406" lon="6.60967">
        <ele>327.5</ele>
        <time>2013-11-27T14:27:34Z</time>
      </trkpt>
      <trkpt lat="46.5241" lon="6.60958">
        <ele>326</ele>
        <time>2013-11-27T14:27:37Z</time>
      </trkpt>
      <trkpt lat="46.52413" lon="6.60932">
        <ele>323.1</ele>
        <time>2013-11-27T14:27:42Z</time>
      </trkpt>
      <trkpt lat="46.5242" lon="6.60919">
        <ele>325.5</ele>
        <time>2013-11-27T14:27:45Z</time>
      </trkpt>
      <trkpt lat="46.52426" lon="6.60908">
        <ele>325.5</ele>
        <time>2013-11-27T14:27:48Z</time>
      </trkpt>
      <trkpt lat="46.52429" lon="6.60894">
        <ele>324.6</ele>
        <time>2013-11-27T14:27:52Z</time>
      </trkpt>
      <trkpt lat="46.52434" lon="6.60878">
        <ele>325.5</ele>
        <time>2013-11-27T14:27:57Z</time>
      </trkpt>
      <trkpt lat="46.52435" lon="6.60863">
        <ele>325.1</ele>
        <time>2013-11-27T14:28:01Z</time>
      </trkpt>
      <trkpt lat="46.52422" lon="6.60855">
        <ele>324.1</ele>
        <time>2013-11-27T14:28:05Z</time>
      </trkpt>
      <trkpt lat="46.52413" lon="6.60847">
        <ele>323.1</ele>
        <time>2013-11-27T14:28:08Z</time>
      </trkpt>
      <trkpt lat="46.52405" lon="6.60835">
        <ele>323.6</ele>
        <time>2013-11-27T14:28:12Z</time>
      </trkpt>
      <trkpt lat="46.52403" lon="6.60816">
        <ele>324.6</ele>
        <time>2013-11-27T14:28:17Z</time>
      </trkpt>
      <trkpt lat="46.52395" lon="6.60801">
        <ele>327</ele>
        <time>2013-11-27T14:28:21Z</time>
      </trkpt>
      <trkpt lat="46.52386" lon="6.60792">
        <ele>326.5</ele>
        <time>2013-11-27T14:28:25Z</time>
      </trkpt>
      <trkpt lat="46.52376" lon="6.60787">
        <ele>325.5</ele>
        <time>2013-11-27T14:28:29Z</time>
      </trkpt>
      <trkpt lat="46.52365" lon="6.60785">
        <ele>328</ele>
        <time>2013-11-27T14:28:33Z</time>
      </trkpt>
      <trkpt lat="46.52356" lon="6.60779">
        <ele>327</ele>
        <time>2013-11-27T14:28:37Z</time>
      </trkpt>
      <trkpt lat="46.52344" lon="6.60774">
        <ele>327.5</ele>
        <time>2013-11-27T14:28:41Z</time>
      </trkpt>
      <trkpt lat="46.52333" lon="6.6077">
        <ele>327.5</ele>
        <time>2013-11-27T14:28:45Z</time>
      </trkpt>
      <trkpt lat="46.52325" lon="6.60766">
        <ele>327.5</ele>
        <time>2013-11-27T14:28:48Z</time>
      </trkpt>
      <trkpt lat="46.52316" lon="6.60762">
        <ele>328</ele>
        <time>2013-11-27T14:28:51Z</time>
      </trkpt>
      <trkpt lat="46.52313" lon="6.60749">
        <ele>327.5</ele>
        <time>2013-11-27T14:28:56Z</time>
      </trkpt>
      <trkpt lat="46.52315" lon="6.60731">
        <ele>325.5</ele>
        <time>2013-11-27T14:29:00Z</time>
      </trkpt>
      <trkpt lat="46.52318" lon="6.60713">
        <ele>324.1</ele>
        <time>2013-11-27T14:29:04Z</time>
      </trkpt>
      <trkpt lat="46.52318" lon="6.60697">
        <ele>321.7</ele>
        <time>2013-11-27T14:29:07Z</time>
      </trkpt>
      <trkpt lat="46.52313" lon="6.60679">
        <ele>321.7</ele>
        <time>2013-11-27T14:29:11Z</time>
      </trkpt>
      <trkpt lat="46.52306" lon="6.60669">
        <ele>318.8</ele>
        <time>2013-11-27T14:29:15Z</time>
      </trkpt>
      <trkpt lat="46.52294" lon="6.60667">
        <ele>319.8</ele>
        <time>2013-11-27T14:29:19Z</time>
      </trkpt>
      <trkpt lat="46.52282" lon="6.60663">
        <ele>316.9</ele>
        <time>2013-11-27T14:29:23Z</time>
      </trkpt>
      <trkpt lat="46.52274" lon="6.60654">
        <ele>315.9</ele>
        <time>2013-11-27T14:29:26Z</time>
      </trkpt>
      <trkpt lat="46.52267" lon="6.60637">
        <ele>314</ele>
        <time>2013-11-27T14:29:30Z</time>
      </trkpt>
      <trkpt lat="46.52261" lon="6.60621">
        <ele>312.6</ele>
        <time>2013-11-27T14:29:34Z</time>
      </trkpt>
      <trkpt lat="46.5225" lon="6.60614">
        <ele>312.6</ele>
        <time>2013-11-27T14:29:38Z</time>
      </trkpt>
      <trkpt lat="46.52238" lon="6.60609">
        <ele>310.6</ele>
        <time>2013-11-27T14:29:42Z</time>
      </trkpt>
      <trkpt lat="46.52226" lon="6.60602">
        <ele>311.1</ele>
        <time>2013-11-27T14:29:46Z</time>
      </trkpt>
      <trkpt lat="46.52216" lon="6.60598">
        <ele>309.7</ele>
        <time>2013-11-27T14:29:49Z</time>
      </trkpt>
      <trkpt lat="46.52207" lon="6.60591">
        <ele>308.2</ele>
        <time>2013-11-27T14:29:53Z</time>
      </trkpt>
      <trkpt lat="46.52194" lon="6.60584">
        <ele>307.3</ele>
        <time>2013-11-27T14:29:57Z</time>
      </trkpt>
      <trkpt lat="46.52186" lon="6.60577">
        <ele>306.3</ele>
        <time>2013-11-27T14:30:00Z</time>
      </trkpt>
      <trkpt lat="46.52175" lon="6.60568">
        <ele>306.8</ele>
        <time>2013-11-27T14:30:04Z</time>
      </trkpt>
      <trkpt lat="46.52165" lon="6.60558">
        <ele>305.4</ele>
        <time>2013-11-27T14:30:08Z</time>
      </trkpt>
      <trkpt lat="46.52157" lon="6.6055">
        <ele>305.4</ele>
        <time>2013-11-27T14:30:11Z</time>
      </trkpt>
      <trkpt lat="46.52149" lon="6.60543">
        <ele>304.9</ele>
        <time>2013-11-27T14:30:14Z</time>
      </trkpt>
      <trkpt lat="46.52141" lon="6.60535">
        <ele>304.9</ele>
        <time>2013-11-27T14:30:17Z</time>
      </trkpt>
      <trkpt lat="46.52133" lon="6.60527">
        <ele>304.9</ele>
        <time>2013-11-27T14:30:20Z</time>
      </trkpt>
      <trkpt lat="46.52126" lon="6.60517">
        <ele>303.4</ele>
        <time>2013-11-27T14:30:23Z</time>
      </trkpt>
      <trkpt lat="46.52119" lon="6.60509">
        <ele>303.9</ele>
        <time>2013-11-27T14:30:26Z</time>
      </trkpt>
      <trkpt lat="46.52109" lon="6.60503">
        <ele>303.4</ele>
        <time>2013-11-27T14:30:30Z</time>
      </trkpt>
      <trkpt lat="46.52099" lon="6.60504">
        <ele>301</ele>
        <time>2013-11-27T14:30:33Z</time>
      </trkpt>
      <trkpt lat="46.52089" lon="6.60506">
        <ele>299.6</ele>
        <time>2013-11-27T14:30:36Z</time>
      </trkpt>
      <trkpt lat="46.5208" lon="6.60505">
        <ele>299.1</ele>
        <time>2013-11-27T14:30:39Z</time>
      </trkpt>
      <trkpt lat="46.52072" lon="6.60497">
        <ele>298.6</ele>
        <time>2013-11-27T14:30:42Z</time>
      </trkpt>
      <trkpt lat="46.52065" lon="6.60483">
        <ele>298.1</ele>
        <time>2013-11-27T14:30:46Z</time>
      </trkpt>
      <trkpt lat="46.52061" lon="6.60471">
        <ele>297.2</ele>
        <time>2013-11-27T14:30:49Z</time>
      </trkpt>
      <trkpt lat="46.52055" lon="6.60456">
        <ele>296.7</ele>
        <time>2013-11-27T14:30:53Z</time>
      </trkpt>
      <trkpt lat="46.52049" lon="6.60446">
        <ele>295.7</ele>
        <time>2013-11-27T14:30:56Z</time>
      </trkpt>
      <trkpt lat="46.52041" lon="6.60439">
        <ele>295.3</ele>
        <time>2013-11-27T14:30:59Z</time>
      </trkpt>
      <trkpt lat="46.52029" lon="6.60435">
        <ele>293.3</ele>
        <time>2013-11-27T14:31:04Z</time>
      </trkpt>
      <trkpt lat="46.52018" lon="6.60431">
        <ele>293.3</ele>
        <time>2013-11-27T14:31:07Z</time>
      </trkpt>
      <trkpt lat="46.52007" lon="6.60426">
        <ele>291.4</ele>
        <time>2013-11-27T14:31:11Z</time>
      </trkpt>
      <trkpt lat="46.51997" lon="6.60423">
        <ele>290.5</ele>
        <time>2013-11-27T14:31:14Z</time>
      </trkpt>
      <trkpt lat="46.51987" lon="6.60421">
        <ele>287.6</ele>
        <time>2013-11-27T14:31:17Z</time>
      </trkpt>
      <trkpt lat="46.51978" lon="6.60419">
        <ele>288</ele>
        <time>2013-11-27T14:31:20Z</time>
      </trkpt>
      <trkpt lat="46.51967" lon="6.6042">
        <ele>286.6</ele>
        <time>2013-11-27T14:31:23Z</time>
      </trkpt>
      <trkpt lat="46.51958" lon="6.60419">
        <ele>284.2</ele>
        <time>2013-11-27T14:31:26Z</time>
      </trkpt>
      <trkpt lat="46.51946" lon="6.60414">
        <ele>286.6</ele>
        <time>2013-11-27T14:31:30Z</time>
      </trkpt>
      <trkpt lat="46.51937" lon="6.60404">
        <ele>286.1</ele>
        <time>2013-11-27T14:31:34Z</time>
      </trkpt>
      <trkpt lat="46.51932" lon="6.60392">
        <ele>283.7</ele>
        <time>2013-11-27T14:31:37Z</time>
      </trkpt>
      <trkpt lat="46.51926" lon="6.60378">
        <ele>284.2</ele>
        <time>2013-11-27T14:31:41Z</time>
      </trkpt>
      <trkpt lat="46.5192" lon="6.60364">
        <ele>283.7</ele>
        <time>2013-11-27T14:31:45Z</time>
      </trkpt>
      <trkpt lat="46.5191" lon="6.60359">
        <ele>281.8</ele>
        <time>2013-11-27T14:31:49Z</time>
      </trkpt>
      <trkpt lat="46.519" lon="6.60359">
        <ele>281.8</ele>
        <time>2013-11-27T14:31:52Z</time>
      </trkpt>
      <trkpt lat="46.51889" lon="6.60359">
        <ele>280.8</ele>
        <time>2013-11-27T14:31:56Z</time>
      </trkpt>
      <trkpt lat="46.51877" lon="6.60358">
        <ele>280.8</ele>
        <time>2013-11-27T14:32:00Z</time>
      </trkpt>
      <trkpt lat="46.51866" lon="6.60356">
        <ele>278.9</ele>
        <time>2013-11-27T14:32:04Z</time>
      </trkpt>
      <trkpt lat="46.51855" lon="6.60354">
        <ele>278.4</ele>
        <time>2013-11-27T14:32:09Z</time>
      </trkpt>
      <trkpt lat="46.51842" lon="6.60349">
        <ele>277</ele>
        <time>2013-11-27T14:32:13Z</time>
      </trkpt>
      <trkpt lat="46.51831" lon="6.60345">
        <ele>276.5</ele>
        <time>2013-11-27T14:32:16Z</time>
      </trkpt>
      <trkpt lat="46.5182" lon="6.60345">
        <ele>277.5</ele>
        <time>2013-11-27T14:32:19Z</time>
      </trkpt>
      <trkpt lat="46.51808" lon="6.60342">
        <ele>276</ele>
        <time>2013-11-27T14:32:23Z</time>
      </trkpt>
      <trkpt lat="46.51796" lon="6.60342">
        <ele>274.6</ele>
        <time>2013-11-27T14:32:27Z</time>
      </trkpt>
      <trkpt lat="46.51786" lon="6.6034">
        <ele>273.6</ele>
        <time>2013-11-27T14:32:30Z</time>
      </trkpt>
      <trkpt lat="46.51775" lon="6.60341">
        <ele>273.1</ele>
        <time>2013-11-27T14:32:34Z</time>
      </trkpt>
      <trkpt lat="46.51767" lon="6.6034">
        <ele>271.7</ele>
        <time>2013-11-27T14:32:38Z</time>
      </trkpt>
      <trkpt lat="46.51751" lon="6.60337">
        <ele>271.7</ele>
        <time>2013-11-27T14:32:42Z</time>
      </trkpt>
      <trkpt lat="46.5174" lon="6.60337">
        <ele>273.1</ele>
        <time>2013-11-27T14:32:46Z</time>
      </trkpt>
      <trkpt lat="46.51729" lon="6.60342">
        <ele>273.1</ele>
        <time>2013-11-27T14:32:50Z</time>
      </trkpt>
      <trkpt lat="46.51718" lon="6.60349">
        <ele>273.1</ele>
        <time>2013-11-27T14:32:54Z</time>
      </trkpt>
      <trkpt lat="46.51708" lon="6.6036">
        <ele>273.1</ele>
        <time>2013-11-27T14:32:58Z</time>
      </trkpt>
      <trkpt lat="46.51697" lon="6.6037">
        <ele>272.7</ele>
        <time>2013-11-27T14:33:02Z</time>
      </trkpt>
      <trkpt lat="46.51689" lon="6.60376">
        <ele>272.2</ele>
        <time>2013-11-27T14:33:05Z</time>
      </trkpt>
      <trkpt lat="46.5168" lon="6.60382">
        <ele>271.7</ele>
        <time>2013-11-27T14:33:08Z</time>
      </trkpt>
      <trkpt lat="46.51669" lon="6.60387">
        <ele>271.7</ele>
        <time>2013-11-27T14:33:12Z</time>
      </trkpt>
      <trkpt lat="46.51658" lon="6.60392">
        <ele>270.8</ele>
        <time>2013-11-27T14:33:16Z</time>
      </trkpt>
      <trkpt lat="46.51651" lon="6.60394">
        <ele>269.3</ele>
        <time>2013-11-27T14:33:19Z</time>
      </trkpt>
      <trkpt lat="46.51639" lon="6.60398">
        <ele>270.8</ele>
        <time>2013-11-27T14:33:24Z</time>
      </trkpt>
      <trkpt lat="46.51621" lon="6.60404">
        <ele>270.3</ele>
        <time>2013-11-27T14:33:30Z</time>
      </trkpt>
      <trkpt lat="46.51608" lon="6.60416">
        <ele>269.3</ele>
        <time>2013-11-27T14:33:34Z</time>
      </trkpt>
      <trkpt lat="46.51597" lon="6.60422">
        <ele>269.3</ele>
        <time>2013-11-27T14:33:38Z</time>
      </trkpt>
      <trkpt lat="46.51585" lon="6.60429">
        <ele>271.2</ele>
        <time>2013-11-27T14:33:42Z</time>
      </trkpt>
      <trkpt lat="46.51576" lon="6.60435">
        <ele>270.3</ele>
        <time>2013-11-27T14:33:45Z</time>
      </trkpt>
      <trkpt lat="46.51568" lon="6.6044">
        <ele>270.3</ele>
        <time>2013-11-27T14:33:48Z</time>
      </trkpt>
      <trkpt lat="46.51558" lon="6.60443">
        <ele>270.3</ele>
        <time>2013-11-27T14:33:51Z</time>
      </trkpt>
      <trkpt lat="46.51548" lon="6.60447">
        <ele>268.8</ele>
        <time>2013-11-27T14:33:54Z</time>
      </trkpt>
      <trkpt lat="46.5154" lon="6.60445">
        <ele>269.3</ele>
        <time>2013-11-27T14:33:57Z</time>
      </trkpt>
      <trkpt lat="46.5153" lon="6.6044">
        <ele>269.8</ele>
        <time>2013-11-27T14:34:01Z</time>
      </trkpt>
      <trkpt lat="46.51518" lon="6.60436">
        <ele>268.8</ele>
        <time>2013-11-27T14:34:05Z</time>
      </trkpt>
      <trkpt lat="46.51508" lon="6.60435">
        <ele>268.4</ele>
        <time>2013-11-27T14:34:08Z</time>
      </trkpt>
      <trkpt lat="46.51498" lon="6.60434">
        <ele>268.4</ele>
        <time>2013-11-27T14:34:12Z</time>
      </trkpt>
      <trkpt lat="46.51488" lon="6.60433">
        <ele>268.4</ele>
        <time>2013-11-27T14:34:17Z</time>
      </trkpt>
      <trkpt lat="46.51477" lon="6.6043">
        <ele>269.3</ele>
        <time>2013-11-27T14:34:21Z</time>
      </trkpt>
      <trkpt lat="46.51464" lon="6.60427">
        <ele>269.3</ele>
        <time>2013-11-27T14:34:25Z</time>
      </trkpt>
      <trkpt lat="46.5145" lon="6.6042">
        <ele>268.8</ele>
        <time>2013-11-27T14:34:30Z</time>
      </trkpt>
      <trkpt lat="46.51438" lon="6.60419">
        <ele>267.4</ele>
        <time>2013-11-27T14:34:34Z</time>
      </trkpt>
      <trkpt lat="46.51423" lon="6.60418">
        <ele>266.9</ele>
        <time>2013-11-27T14:34:38Z</time>
      </trkpt>
      <trkpt lat="46.51413" lon="6.60418">
        <ele>266.4</ele>
        <time>2013-11-27T14:34:41Z</time>
      </trkpt>
      <trkpt lat="46.51403" lon="6.6042">
        <ele>266.9</ele>
        <time>2013-11-27T14:34:44Z</time>
      </trkpt>
      <trkpt lat="46.51391" lon="6.60421">
        <ele>266.9</ele>
        <time>2013-11-27T14:34:48Z</time>
      </trkpt>
      <trkpt lat="46.5138" lon="6.60426">
        <ele>266.4</ele>
        <time>2013-11-27T14:34:52Z</time>
      </trkpt>
      <trkpt lat="46.51368" lon="6.60432">
        <ele>265.5</ele>
        <time>2013-11-27T14:34:56Z</time>
      </trkpt>
      <trkpt lat="46.51358" lon="6.60438">
        <ele>266.4</ele>
        <time>2013-11-27T14:35:00Z</time>
      </trkpt>
      <trkpt lat="46.51347" lon="6.60444">
        <ele>265.9</ele>
        <time>2013-11-27T14:35:04Z</time>
      </trkpt>
      <trkpt lat="46.51334" lon="6.60448">
        <ele>266.9</ele>
        <time>2013-11-27T14:35:08Z</time>
      </trkpt>
      <trkpt lat="46.51323" lon="6.60447">
        <ele>265.5</ele>
        <time>2013-11-27T14:35:12Z</time>
      </trkpt>
      <trkpt lat="46.51312" lon="6.60443">
        <ele>266.4</ele>
        <time>2013-11-27T14:35:16Z</time>
      </trkpt>
      <trkpt lat="46.51298" lon="6.60444">
        <ele>265.9</ele>
        <time>2013-11-27T14:35:20Z</time>
      </trkpt>
      <trkpt lat="46.51288" lon="6.60444">
        <ele>265.5</ele>
        <time>2013-11-27T14:35:23Z</time>
      </trkpt>
      <trkpt lat="46.51277" lon="6.6044">
        <ele>265</ele>
        <time>2013-11-27T14:35:27Z</time>
      </trkpt>
      <trkpt lat="46.51268" lon="6.60437">
        <ele>264.5</ele>
        <time>2013-11-27T14:35:30Z</time>
      </trkpt>
      <trkpt lat="46.51259" lon="6.60445">
        <ele>265.5</ele>
        <time>2013-11-27T14:35:34Z</time>
      </trkpt>
      <trkpt lat="46.51256" lon="6.60461">
        <ele>265.5</ele>
        <time>2013-11-27T14:35:38Z</time>
      </trkpt>
      <trkpt lat="46.51255" lon="6.60474">
        <ele>265.5</ele>
        <time>2013-11-27T14:35:41Z</time>
      </trkpt>
      <trkpt lat="46.51256" lon="6.60488">
        <ele>265</ele>
        <time>2013-11-27T14:35:44Z</time>
      </trkpt>
      <trkpt lat="46.51257" lon="6.60505">
        <ele>264.5</ele>
        <time>2013-11-27T14:35:48Z</time>
      </trkpt>
      <trkpt lat="46.51258" lon="6.60522">
        <ele>265.5</ele>
        <time>2013-11-27T14:35:52Z</time>
      </trkpt>
      <trkpt lat="46.51259" lon="6.60535">
        <ele>264</ele>
        <time>2013-11-27T14:35:55Z</time>
      </trkpt>
      <trkpt lat="46.51259" lon="6.60552">
        <ele>264</ele>
        <time>2013-11-27T14:35:59Z</time>
      </trkpt>
      <trkpt lat="46.51261" lon="6.60567">
        <ele>265.5</ele>
        <time>2013-11-27T14:36:03Z</time>
      </trkpt>
      <trkpt lat="46.51261" lon="6.60585">
        <ele>264.5</ele>
        <time>2013-11-27T14:36:07Z</time>
      </trkpt>
      <trkpt lat="46.51262" lon="6.606">
        <ele>264</ele>
        <time>2013-11-27T14:36:11Z</time>
      </trkpt>
      <trkpt lat="46.51261" lon="6.60618">
        <ele>265</ele>
        <time>2013-11-27T14:36:15Z</time>
      </trkpt>
      <trkpt lat="46.51261" lon="6.60633">
        <ele>265.5</ele>
        <time>2013-11-27T14:36:19Z</time>
      </trkpt>
      <trkpt lat="46.51261" lon="6.6065">
        <ele>264.5</ele>
        <time>2013-11-27T14:36:23Z</time>
      </trkpt>
      <trkpt lat="46.51261" lon="6.60669">
        <ele>265.5</ele>
        <time>2013-11-27T14:36:27Z</time>
      </trkpt>
      <trkpt lat="46.51261" lon="6.60685">
        <ele>265.9</ele>
        <time>2013-11-27T14:36:31Z</time>
      </trkpt>
      <trkpt lat="46.51262" lon="6.60702">
        <ele>264</ele>
        <time>2013-11-27T14:36:35Z</time>
      </trkpt>
      <trkpt lat="46.51263" lon="6.60719">
        <ele>264.5</ele>
        <time>2013-11-27T14:36:39Z</time>
      </trkpt>
      <trkpt lat="46.51263" lon="6.60735">
        <ele>264</ele>
        <time>2013-11-27T14:36:43Z</time>
      </trkpt>
      <trkpt lat="46.51263" lon="6.60752">
        <ele>264</ele>
        <time>2013-11-27T14:36:47Z</time>
      </trkpt>
      <trkpt lat="46.51262" lon="6.6077">
        <ele>265.5</ele>
        <time>2013-11-27T14:36:51Z</time>
      </trkpt>
      <trkpt lat="46.51252" lon="6.60781">
        <ele>264.5</ele>
        <time>2013-11-27T14:36:55Z</time>
      </trkpt>
      <trkpt lat="46.51243" lon="6.60786">
        <ele>265</ele>
        <time>2013-11-27T14:36:58Z</time>
      </trkpt>
      <trkpt lat="46.51233" lon="6.6079">
        <ele>264.5</ele>
        <time>2013-11-27T14:37:02Z</time>
      </trkpt>
      <trkpt lat="46.51221" lon="6.60795">
        <ele>264.5</ele>
        <time>2013-11-27T14:37:06Z</time>
      </trkpt>
      <trkpt lat="46.5121" lon="6.60802">
        <ele>265</ele>
        <time>2013-11-27T14:37:10Z</time>
      </trkpt>
      <trkpt lat="46.51202" lon="6.60812">
        <ele>265.5</ele>
        <time>2013-11-27T14:37:14Z</time>
      </trkpt>
      <trkpt lat="46.512" lon="6.60828">
        <ele>264.5</ele>
        <time>2013-11-27T14:37:18Z</time>
      </trkpt>
      <trkpt lat="46.51198" lon="6.60842">
        <ele>265</ele>
        <time>2013-11-27T14:37:22Z</time>
      </trkpt>
      <trkpt lat="46.51192" lon="6.60855">
        <ele>264.5</ele>
        <time>2013-11-27T14:37:26Z</time>
      </trkpt>
      <trkpt lat="46.51185" lon="6.60868">
        <ele>265</ele>
        <time>2013-11-27T14:37:30Z</time>
      </trkpt>
      <trkpt lat="46.51177" lon="6.60881">
        <ele>264</ele>
        <time>2013-11-27T14:37:34Z</time>
      </trkpt>
      <trkpt lat="46.51168" lon="6.60889">
        <ele>265</ele>
        <time>2013-11-27T14:37:38Z</time>
      </trkpt>
      <trkpt lat="46.51159" lon="6.60898">
        <ele>265.5</ele>
        <time>2013-11-27T14:37:42Z</time>
      </trkpt>
      <trkpt lat="46.51154" lon="6.6091">
        <ele>265</ele>
        <time>2013-11-27T14:37:46Z</time>
      </trkpt>
      <trkpt lat="46.51154" lon="6.60926">
        <ele>264.5</ele>
        <time>2013-11-27T14:37:50Z</time>
      </trkpt>
      <trkpt lat="46.51153" lon="6.60944">
        <ele>264</ele>
        <time>2013-11-27T14:37:54Z</time>
      </trkpt>
      <trkpt lat="46.5115" lon="6.60957">
        <ele>264</ele>
        <time>2013-11-27T14:37:57Z</time>
      </trkpt>
      <trkpt lat="46.51145" lon="6.60972">
        <ele>264</ele>
        <time>2013-11-27T14:38:01Z</time>
      </trkpt>
      <trkpt lat="46.51147" lon="6.60984">
        <ele>264.5</ele>
        <time>2013-11-27T14:38:05Z</time>
      </trkpt>
      <trkpt lat="46.51146" lon="6.61001">
        <ele>264.5</ele>
        <time>2013-11-27T14:38:09Z</time>
      </trkpt>
      <trkpt lat="46.51142" lon="6.61017">
        <ele>264.5</ele>
        <time>2013-11-27T14:38:13Z</time>
      </trkpt>
      <trkpt lat="46.51138" lon="6.61028">
        <ele>264.5</ele>
        <time>2013-11-27T14:38:16Z</time>
      </trkpt>
      <trkpt lat="46.51142" lon="6.61041">
        <ele>265</ele>
        <time>2013-11-27T14:38:20Z</time>
      </trkpt>
      <trkpt lat="46.51151" lon="6.61051">
        <ele>265.5</ele>
        <time>2013-11-27T14:38:24Z</time>
      </trkpt>
      <trkpt lat="46.51153" lon="6.61064">
        <ele>265.5</ele>
        <time>2013-11-27T14:38:27Z</time>
      </trkpt>
      <trkpt lat="46.51151" lon="6.6108">
        <ele>265.5</ele>
        <time>2013-11-27T14:38:31Z</time>
      </trkpt>
      <trkpt lat="46.51151" lon="6.61097">
        <ele>265</ele>
        <time>2013-11-27T14:38:35Z</time>
      </trkpt>
      <trkpt lat="46.51152" lon="6.61113">
        <ele>265.5</ele>
        <time>2013-11-27T14:38:39Z</time>
      </trkpt>
      <trkpt lat="46.51152" lon="6.61129">
        <ele>265.5</ele>
        <time>2013-11-27T14:38:43Z</time>
      </trkpt>
      <trkpt lat="46.51147" lon="6.61142">
        <ele>265.5</ele>
        <time>2013-11-27T14:38:47Z</time>
      </trkpt>
      <trkpt lat="46.51137" lon="6.6115">
        <ele>264.5</ele>
        <time>2013-11-27T14:38:51Z</time>
      </trkpt>
      <trkpt lat="46.51128" lon="6.61156">
        <ele>264.5</ele>
        <time>2013-11-27T14:38:54Z</time>
      </trkpt>
      <trkpt lat="46.51119" lon="6.61165">
        <ele>265</ele>
        <time>2013-11-27T14:38:58Z</time>
      </trkpt>
      <trkpt lat="46.51118" lon="6.6118">
        <ele>264.5</ele>
        <time>2013-11-27T14:39:02Z</time>
      </trkpt>
      <trkpt lat="46.51114" lon="6.61195">
        <ele>264.5</ele>
        <time>2013-11-27T14:39:06Z</time>
      </trkpt>
      <trkpt lat="46.51112" lon="6.61209">
        <ele>264.5</ele>
        <time>2013-11-27T14:39:09Z</time>
      </trkpt>
      <trkpt lat="46.5111" lon="6.61222">
        <ele>264</ele>
        <time>2013-11-27T14:39:12Z</time>
      </trkpt>
      <trkpt lat="46.51107" lon="6.61238">
        <ele>265</ele>
        <time>2013-11-27T14:39:16Z</time>
      </trkpt>
      <trkpt lat="46.51104" lon="6.61253">
        <ele>264</ele>
        <time>2013-11-27T14:39:20Z</time>
      </trkpt>
      <trkpt lat="46.51101" lon="6.61268">
        <ele>264.5</ele>
        <time>2013-11-27T14:39:24Z</time>
      </trkpt>
      <trkpt lat="46.51098" lon="6.61285">
        <ele>265</ele>
        <time>2013-11-27T14:39:28Z</time>
      </trkpt>
      <trkpt lat="46.51094" lon="6.61301">
        <ele>265</ele>
        <time>2013-11-27T14:39:32Z</time>
      </trkpt>
      <trkpt lat="46.51091" lon="6.61314">
        <ele>263.5</ele>
        <time>2013-11-27T14:39:35Z</time>
      </trkpt>
      <trkpt lat="46.51087" lon="6.61329">
        <ele>263.5</ele>
        <time>2013-11-27T14:39:39Z</time>
      </trkpt>
      <trkpt lat="46.51083" lon="6.61343">
        <ele>265</ele>
        <time>2013-11-27T14:39:43Z</time>
      </trkpt>
      <trkpt lat="46.51078" lon="6.61357">
        <ele>264</ele>
        <time>2013-11-27T14:39:47Z</time>
      </trkpt>
      <trkpt lat="46.51074" lon="6.61373">
        <ele>264</ele>
        <time>2013-11-27T14:39:51Z</time>
      </trkpt>
      <trkpt lat="46.51069" lon="6.61389">
        <ele>264.5</ele>
        <time>2013-11-27T14:39:55Z</time>
      </trkpt>
      <trkpt lat="46.51062" lon="6.61405">
        <ele>264</ele>
        <time>2013-11-27T14:39:59Z</time>
      </trkpt>
      <trkpt lat="46.51057" lon="6.6142">
        <ele>263.5</ele>
        <time>2013-11-27T14:40:03Z</time>
      </trkpt>
      <trkpt lat="46.51052" lon="6.61433">
        <ele>264</ele>
        <time>2013-11-27T14:40:06Z</time>
      </trkpt>
      <trkpt lat="46.51046" lon="6.61448">
        <ele>264.5</ele>
        <time>2013-11-27T14:40:10Z</time>
      </trkpt>
      <trkpt lat="46.51041" lon="6.61462">
        <ele>263.5</ele>
        <time>2013-11-27T14:40:14Z</time>
      </trkpt>
      <trkpt lat="46.51034" lon="6.61476">
        <ele>263.5</ele>
        <time>2013-11-27T14:40:18Z</time>
      </trkpt>
      <trkpt lat="46.51028" lon="6.61486">
        <ele>263.1</ele>
        <time>2013-11-27T14:40:21Z</time>
      </trkpt>
      <trkpt lat="46.51023" lon="6.61498">
        <ele>264.5</ele>
        <time>2013-11-27T14:40:24Z</time>
      </trkpt>
      <trkpt lat="46.51017" lon="6.61512">
        <ele>263.1</ele>
        <time>2013-11-27T14:40:28Z</time>
      </trkpt>
      <trkpt lat="46.5101" lon="6.61526">
        <ele>263.5</ele>
        <time>2013-11-27T14:40:32Z</time>
      </trkpt>
      <trkpt lat="46.51004" lon="6.61537">
        <ele>263.5</ele>
        <time>2013-11-27T14:40:35Z</time>
      </trkpt>
      <trkpt lat="46.50997" lon="6.6155">
        <ele>264.5</ele>
        <time>2013-11-27T14:40:39Z</time>
      </trkpt>
      <trkpt lat="46.50989" lon="6.61562">
        <ele>263.1</ele>
        <time>2013-11-27T14:40:43Z</time>
      </trkpt>
      <trkpt lat="46.50981" lon="6.61575">
        <ele>263.5</ele>
        <time>2013-11-27T14:40:47Z</time>
      </trkpt>
      <trkpt lat="46.50974" lon="6.61587">
        <ele>264</ele>
        <time>2013-11-27T14:40:51Z</time>
      </trkpt>
      <trkpt lat="46.50976" lon="6.616">
        <ele>264.5</ele>
        <time>2013-11-27T14:40:55Z</time>
      </trkpt>
      <trkpt lat="46.50985" lon="6.61606">
        <ele>265.5</ele>
        <time>2013-11-27T14:40:59Z</time>
      </trkpt>
      <trkpt lat="46.50994" lon="6.61614">
        <ele>265.9</ele>
        <time>2013-11-27T14:41:03Z</time>
      </trkpt>
      <trkpt lat="46.51003" lon="6.61623">
        <ele>265.5</ele>
        <time>2013-11-27T14:41:07Z</time>
      </trkpt>
      <trkpt lat="46.51013" lon="6.61632">
        <ele>265</ele>
        <time>2013-11-27T14:41:11Z</time>
      </trkpt>
      <trkpt lat="46.51024" lon="6.6164">
        <ele>266.9</ele>
        <time>2013-11-27T14:41:15Z</time>
      </trkpt>
      <trkpt lat="46.51035" lon="6.61647">
        <ele>265.9</ele>
        <time>2013-11-27T14:41:19Z</time>
      </trkpt>
      <trkpt lat="46.51043" lon="6.61653">
        <ele>266.4</ele>
        <time>2013-11-27T14:41:22Z</time>
      </trkpt>
      <trkpt lat="46.51054" lon="6.61658">
        <ele>266.4</ele>
        <time>2013-11-27T14:41:26Z</time>
      </trkpt>
      <trkpt lat="46.51063" lon="6.61657">
        <ele>266.4</ele>
        <time>2013-11-27T14:41:30Z</time>
      </trkpt>
      <trkpt lat="46.51068" lon="6.61645">
        <ele>265.9</ele>
        <time>2013-11-27T14:41:33Z</time>
      </trkpt>
      <trkpt lat="46.51074" lon="6.61635">
        <ele>267.4</ele>
        <time>2013-11-27T14:41:36Z</time>
      </trkpt>
      <trkpt lat="46.51082" lon="6.61627">
        <ele>266.4</ele>
        <time>2013-11-27T14:41:39Z</time>
      </trkpt>
      <trkpt lat="46.51093" lon="6.61627">
        <ele>265</ele>
        <time>2013-11-27T14:41:43Z</time>
      </trkpt>
      <trkpt lat="46.51101" lon="6.61633">
        <ele>265.5</ele>
        <time>2013-11-27T14:41:46Z</time>
      </trkpt>
      <trkpt lat="46.51109" lon="6.61642">
        <ele>266.4</ele>
        <time>2013-11-27T14:41:50Z</time>
      </trkpt>
      <trkpt lat="46.51116" lon="6.61655">
        <ele>265.9</ele>
        <time>2013-11-27T14:41:54Z</time>
      </trkpt>
      <trkpt lat="46.51123" lon="6.61667">
        <ele>266.4</ele>
        <time>2013-11-27T14:41:58Z</time>
      </trkpt>
      <trkpt lat="46.5113" lon="6.6168">
        <ele>265</ele>
        <time>2013-11-27T14:42:02Z</time>
      </trkpt>
      <trkpt lat="46.51138" lon="6.61693">
        <ele>264.5</ele>
        <time>2013-11-27T14:42:06Z</time>
      </trkpt>
      <trkpt lat="46.51145" lon="6.61707">
        <ele>265.9</ele>
        <time>2013-11-27T14:42:10Z</time>
      </trkpt>
      <trkpt lat="46.51152" lon="6.61719">
        <ele>265.9</ele>
        <time>2013-11-27T14:42:14Z</time>
      </trkpt>
      <trkpt lat="46.51159" lon="6.61731">
        <ele>264</ele>
        <time>2013-11-27T14:42:18Z</time>
      </trkpt>
      <trkpt lat="46.51169" lon="6.61736">
        <ele>265.9</ele>
        <time>2013-11-27T14:42:22Z</time>
      </trkpt>
      <trkpt lat="46.51181" lon="6.61735">
        <ele>265.9</ele>
        <time>2013-11-27T14:42:26Z</time>
      </trkpt>
      <trkpt lat="46.5119" lon="6.61738">
        <ele>266.4</ele>
        <time>2013-11-27T14:42:30Z</time>
      </trkpt>
      <trkpt lat="46.51198" lon="6.61747">
        <ele>268.4</ele>
        <time>2013-11-27T14:42:35Z</time>
      </trkpt>
      <trkpt lat="46.51202" lon="6.61762">
        <ele>268.8</ele>
        <time>2013-11-27T14:42:40Z</time>
      </trkpt>
      <trkpt lat="46.51212" lon="6.61767">
        <ele>268.4</ele>
        <time>2013-11-27T14:42:46Z</time>
      </trkpt>
      <trkpt lat="46.5122" lon="6.61785">
        <ele>266.9</ele>
        <time>2013-11-27T14:42:53Z</time>
      </trkpt>
      <trkpt lat="46.51213" lon="6.61807">
        <ele>269.3</ele>
        <time>2013-11-27T14:42:58Z</time>
      </trkpt>
      <trkpt lat="46.51204" lon="6.61825">
        <ele>270.8</ele>
        <time>2013-11-27T14:43:05Z</time>
      </trkpt>
      <trkpt lat="46.51196" lon="6.61843">
        <ele>271.2</ele>
        <time>2013-11-27T14:43:09Z</time>
      </trkpt>
      <trkpt lat="46.51188" lon="6.61855">
        <ele>270.8</ele>
        <time>2013-11-27T14:43:12Z</time>
      </trkpt>
      <trkpt lat="46.51179" lon="6.61868">
        <ele>271.7</ele>
        <time>2013-11-27T14:43:16Z</time>
      </trkpt>
      <trkpt lat="46.5117" lon="6.61881">
        <ele>271.2</ele>
        <time>2013-11-27T14:43:20Z</time>
      </trkpt>
      <trkpt lat="46.51162" lon="6.61894">
        <ele>271.2</ele>
        <time>2013-11-27T14:43:25Z</time>
      </trkpt>
      <trkpt lat="46.51155" lon="6.61907">
        <ele>271.2</ele>
        <time>2013-11-27T14:43:29Z</time>
      </trkpt>
      <trkpt lat="46.51158" lon="6.6192">
        <ele>273.1</ele>
        <time>2013-11-27T14:43:34Z</time>
      </trkpt>
      <trkpt lat="46.51164" lon="6.6193">
        <ele>274.6</ele>
        <time>2013-11-27T14:43:39Z</time>
      </trkpt>
      <trkpt lat="46.51171" lon="6.6194">
        <ele>276</ele>
        <time>2013-11-27T14:43:45Z</time>
      </trkpt>
      <trkpt lat="46.51181" lon="6.61952">
        <ele>278</ele>
        <time>2013-11-27T14:43:50Z</time>
      </trkpt>
      <trkpt lat="46.51186" lon="6.61966">
        <ele>280.4</ele>
        <time>2013-11-27T14:43:56Z</time>
      </trkpt>
      <trkpt lat="46.51191" lon="6.61976">
        <ele>282.3</ele>
        <time>2013-11-27T14:44:02Z</time>
      </trkpt>
      <trkpt lat="46.51203" lon="6.61979">
        <ele>283.2</ele>
        <time>2013-11-27T14:44:07Z</time>
      </trkpt>
      <trkpt lat="46.51213" lon="6.61991">
        <ele>284.7</ele>
        <time>2013-11-27T14:44:13Z</time>
      </trkpt>
      <trkpt lat="46.51223" lon="6.62002">
        <ele>284.7</ele>
        <time>2013-11-27T14:44:18Z</time>
      </trkpt>
      <trkpt lat="46.51232" lon="6.62012">
        <ele>287.6</ele>
        <time>2013-11-27T14:44:23Z</time>
      </trkpt>
      <trkpt lat="46.51239" lon="6.62025">
        <ele>289.5</ele>
        <time>2013-11-27T14:44:28Z</time>
      </trkpt>
      <trkpt lat="46.51248" lon="6.62036">
        <ele>290</ele>
        <time>2013-11-27T14:44:34Z</time>
      </trkpt>
      <trkpt lat="46.51243" lon="6.6205">
        <ele>290.9</ele>
        <time>2013-11-27T14:44:39Z</time>
      </trkpt>
      <trkpt lat="46.51236" lon="6.62062">
        <ele>290.9</ele>
        <time>2013-11-27T14:44:43Z</time>
      </trkpt>
      <trkpt lat="46.51226" lon="6.62071">
        <ele>290</ele>
        <time>2013-11-27T14:44:47Z</time>
      </trkpt>
      <trkpt lat="46.51221" lon="6.62084">
        <ele>290.9</ele>
        <time>2013-11-27T14:44:51Z</time>
      </trkpt>
      <trkpt lat="46.5122" lon="6.62099">
        <ele>290.5</ele>
        <time>2013-11-27T14:44:55Z</time>
      </trkpt>
      <trkpt lat="46.5122" lon="6.62116">
        <ele>291.4</ele>
        <time>2013-11-27T14:45:00Z</time>
      </trkpt>
      <trkpt lat="46.51219" lon="6.62131">
        <ele>293.3</ele>
        <time>2013-11-27T14:45:04Z</time>
      </trkpt>
      <trkpt lat="46.51217" lon="6.62146">
        <ele>293.3</ele>
        <time>2013-11-27T14:45:08Z</time>
      </trkpt>
      <trkpt lat="46.51215" lon="6.6216">
        <ele>293.8</ele>
        <time>2013-11-27T14:45:13Z</time>
      </trkpt>
      <trkpt lat="46.51216" lon="6.62174">
        <ele>294.8</ele>
        <time>2013-11-27T14:45:17Z</time>
      </trkpt>
      <trkpt lat="46.51223" lon="6.62185">
        <ele>295.7</ele>
        <time>2013-11-27T14:45:23Z</time>
      </trkpt>
      <trkpt lat="46.51227" lon="6.62208">
        <ele>297.7</ele>
        <time>2013-11-27T14:45:30Z</time>
      </trkpt>
      <trkpt lat="46.51228" lon="6.62227">
        <ele>297.7</ele>
        <time>2013-11-27T14:45:35Z</time>
      </trkpt>
      <trkpt lat="46.51228" lon="6.62242">
        <ele>299.6</ele>
        <time>2013-11-27T14:45:39Z</time>
      </trkpt>
      <trkpt lat="46.51236" lon="6.62257">
        <ele>300.1</ele>
        <time>2013-11-27T14:45:44Z</time>
      </trkpt>
      <trkpt lat="46.51248" lon="6.62268">
        <ele>300.5</ele>
        <time>2013-11-27T14:45:49Z</time>
      </trkpt>
      <trkpt lat="46.51257" lon="6.62281">
        <ele>301</ele>
        <time>2013-11-27T14:45:53Z</time>
      </trkpt>
      <trkpt lat="46.5126" lon="6.62295">
        <ele>300.1</ele>
        <time>2013-11-27T14:45:57Z</time>
      </trkpt>
      <trkpt lat="46.5126" lon="6.62313">
        <ele>301</ele>
        <time>2013-11-27T14:46:02Z</time>
      </trkpt>
      <trkpt lat="46.51263" lon="6.6233">
        <ele>299.6</ele>
        <time>2013-11-27T14:46:06Z</time>
      </trkpt>
      <trkpt lat="46.51261" lon="6.62346">
        <ele>300.5</ele>
        <time>2013-11-27T14:46:10Z</time>
      </trkpt>
      <trkpt lat="46.51258" lon="6.62361">
        <ele>299.6</ele>
        <time>2013-11-27T14:46:14Z</time>
      </trkpt>
      <trkpt lat="46.51259" lon="6.62377">
        <ele>300.5</ele>
        <time>2013-11-27T14:46:18Z</time>
      </trkpt>
      <trkpt lat="46.51263" lon="6.62392">
        <ele>300.5</ele>
        <time>2013-11-27T14:46:22Z</time>
      </trkpt>
      <trkpt lat="46.51272" lon="6.62403">
        <ele>301</ele>
        <time>2013-11-27T14:46:27Z</time>
      </trkpt>
      <trkpt lat="46.51279" lon="6.62414">
        <ele>301</ele>
        <time>2013-11-27T14:46:31Z</time>
      </trkpt>
      <trkpt lat="46.51285" lon="6.62426">
        <ele>302</ele>
        <time>2013-11-27T14:46:35Z</time>
      </trkpt>
      <trkpt lat="46.51291" lon="6.6244">
        <ele>302</ele>
        <time>2013-11-27T14:46:40Z</time>
      </trkpt>
      <trkpt lat="46.51296" lon="6.62453">
        <ele>303.4</ele>
        <time>2013-11-27T14:46:45Z</time>
      </trkpt>
      <trkpt lat="46.51306" lon="6.6245">
        <ele>306.8</ele>
        <time>2013-11-27T14:46:56Z</time>
      </trkpt>
      <trkpt lat="46.51312" lon="6.62435">
        <ele>309.7</ele>
        <time>2013-11-27T14:47:03Z</time>
      </trkpt>
      <trkpt lat="46.51317" lon="6.62421">
        <ele>310.2</ele>
        <time>2013-11-27T14:47:08Z</time>
      </trkpt>
      <trkpt lat="46.51322" lon="6.62405">
        <ele>312.1</ele>
        <time>2013-11-27T14:47:13Z</time>
      </trkpt>
      <trkpt lat="46.51329" lon="6.62408">
        <ele>313</ele>
        <time>2013-11-27T14:47:18Z</time>
      </trkpt>
      <trkpt lat="46.51332" lon="6.62423">
        <ele>315.5</ele>
        <time>2013-11-27T14:47:24Z</time>
      </trkpt>
      <trkpt lat="46.51336" lon="6.62437">
        <ele>316.4</ele>
        <time>2013-11-27T14:47:29Z</time>
      </trkpt>
      <trkpt lat="46.51342" lon="6.62432">
        <ele>318.3</ele>
        <time>2013-11-27T14:47:34Z</time>
      </trkpt>
      <trkpt lat="46.51344" lon="6.62415">
        <ele>320.3</ele>
        <time>2013-11-27T14:47:40Z</time>
      </trkpt>
      <trkpt lat="46.51349" lon="6.62402">
        <ele>321.2</ele>
        <time>2013-11-27T14:47:45Z</time>
      </trkpt>
      <trkpt lat="46.51349" lon="6.62388">
        <ele>324.6</ele>
        <time>2013-11-27T14:47:54Z</time>
      </trkpt>
      <trkpt lat="46.51354" lon="6.62376">
        <ele>324.6</ele>
        <time>2013-11-27T14:47:58Z</time>
      </trkpt>
      <trkpt lat="46.51361" lon="6.62363">
        <ele>324.1</ele>
        <time>2013-11-27T14:48:02Z</time>
      </trkpt>
      <trkpt lat="46.51366" lon="6.6235">
        <ele>324.1</ele>
        <time>2013-11-27T14:48:06Z</time>
      </trkpt>
      <trkpt lat="46.51373" lon="6.62335">
        <ele>324.1</ele>
        <time>2013-11-27T14:48:10Z</time>
      </trkpt>
      <trkpt lat="46.5138" lon="6.62322">
        <ele>323.6</ele>
        <time>2013-11-27T14:48:14Z</time>
      </trkpt>
      <trkpt lat="46.51386" lon="6.62311">
        <ele>323.1</ele>
        <time>2013-11-27T14:48:18Z</time>
      </trkpt>
      <trkpt lat="46.51394" lon="6.62297">
        <ele>323.1</ele>
        <time>2013-11-27T14:48:22Z</time>
      </trkpt>
      <trkpt lat="46.514" lon="6.62287">
        <ele>323.1</ele>
        <time>2013-11-27T14:48:25Z</time>
      </trkpt>
      <trkpt lat="46.51409" lon="6.62278">
        <ele>322.7</ele>
        <time>2013-11-27T14:48:29Z</time>
      </trkpt>
      <trkpt lat="46.51419" lon="6.62274">
        <ele>322.7</ele>
        <time>2013-11-27T14:48:33Z</time>
      </trkpt>
      <trkpt lat="46.5143" lon="6.62273">
        <ele>321.7</ele>
        <time>2013-11-27T14:48:37Z</time>
      </trkpt>
      <trkpt lat="46.51436" lon="6.62283">
        <ele>321.7</ele>
        <time>2013-11-27T14:48:42Z</time>
      </trkpt>
      <trkpt lat="46.51436" lon="6.62303">
        <ele>326</ele>
        <time>2013-11-27T14:48:52Z</time>
      </trkpt>
      <trkpt lat="46.51431" lon="6.62326">
        <ele>328.9</ele>
        <time>2013-11-27T14:48:59Z</time>
      </trkpt>
      <trkpt lat="46.5143" lon="6.62354">
        <ele>329.9</ele>
        <time>2013-11-27T14:49:08Z</time>
      </trkpt>
      <trkpt lat="46.51436" lon="6.62367">
        <ele>331.8</ele>
        <time>2013-11-27T14:49:14Z</time>
      </trkpt>
      <trkpt lat="46.51441" lon="6.6238">
        <ele>335.2</ele>
        <time>2013-11-27T14:49:19Z</time>
      </trkpt>
      <trkpt lat="46.51446" lon="6.62395">
        <ele>338</ele>
        <time>2013-11-27T14:49:25Z</time>
      </trkpt>
      <trkpt lat="46.5145" lon="6.62408">
        <ele>340</ele>
        <time>2013-11-27T14:49:31Z</time>
      </trkpt>
      <trkpt lat="46.51442" lon="6.6242">
        <ele>340.9</ele>
        <time>2013-11-27T14:49:37Z</time>
      </trkpt>
      <trkpt lat="46.51432" lon="6.62426">
        <ele>339</ele>
        <time>2013-11-27T14:49:42Z</time>
      </trkpt>
      <trkpt lat="46.51421" lon="6.62424">
        <ele>340</ele>
        <time>2013-11-27T14:49:47Z</time>
      </trkpt>
      <trkpt lat="46.51409" lon="6.62419">
        <ele>339.5</ele>
        <time>2013-11-27T14:49:53Z</time>
      </trkpt>
      <trkpt lat="46.51402" lon="6.62409">
        <ele>340.4</ele>
        <time>2013-11-27T14:49:57Z</time>
      </trkpt>
      <trkpt lat="46.514" lon="6.62395">
        <ele>339.5</ele>
        <time>2013-11-27T14:50:01Z</time>
      </trkpt>
      <trkpt lat="46.51407" lon="6.62383">
        <ele>340.9</ele>
        <time>2013-11-27T14:50:06Z</time>
      </trkpt>
      <trkpt lat="46.51418" lon="6.62383">
        <ele>340</ele>
        <time>2013-11-27T14:50:11Z</time>
      </trkpt>
      <trkpt lat="46.51427" lon="6.62391">
        <ele>340</ele>
        <time>2013-11-27T14:50:15Z</time>
      </trkpt>
      <trkpt lat="46.51435" lon="6.624">
        <ele>340.9</ele>
        <time>2013-11-27T14:50:20Z</time>
      </trkpt>
      <trkpt lat="46.51444" lon="6.62408">
        <ele>340.9</ele>
        <time>2013-11-27T14:50:25Z</time>
      </trkpt>
      <trkpt lat="46.51455" lon="6.62416">
        <ele>340.9</ele>
        <time>2013-11-27T14:50:31Z</time>
      </trkpt>
      <trkpt lat="46.51463" lon="6.62425">
        <ele>340</ele>
        <time>2013-11-27T14:50:38Z</time>
      </trkpt>
      <trkpt lat="46.51471" lon="6.62413">
        <ele>336.6</ele>
        <time>2013-11-27T14:50:45Z</time>
      </trkpt>
      <trkpt lat="46.51479" lon="6.62422">
        <ele>334.7</ele>
        <time>2013-11-27T14:50:52Z</time>
      </trkpt>
      <trkpt lat="46.51485" lon="6.6241">
        <ele>330.8</ele>
        <time>2013-11-27T14:51:00Z</time>
      </trkpt>
      <trkpt lat="46.51482" lon="6.62397">
        <ele>327.5</ele>
        <time>2013-11-27T14:51:10Z</time>
      </trkpt>
      <trkpt lat="46.51491" lon="6.62409">
        <ele>326.5</ele>
        <time>2013-11-27T14:51:16Z</time>
      </trkpt>
      <trkpt lat="46.51496" lon="6.62425">
        <ele>325.5</ele>
        <time>2013-11-27T14:51:22Z</time>
      </trkpt>
      <trkpt lat="46.51502" lon="6.62422">
        <ele>324.1</ele>
        <time>2013-11-27T14:51:30Z</time>
      </trkpt>
      <trkpt lat="46.51502" lon="6.62406">
        <ele>322.7</ele>
        <time>2013-11-27T14:51:36Z</time>
      </trkpt>
      <trkpt lat="46.51499" lon="6.6239">
        <ele>320.7</ele>
        <time>2013-11-27T14:51:40Z</time>
      </trkpt>
      <trkpt lat="46.51503" lon="6.62383">
        <ele>316.9</ele>
        <time>2013-11-27T14:51:46Z</time>
      </trkpt>
      <trkpt lat="46.51511" lon="6.62393">
        <ele>317.4</ele>
        <time>2013-11-27T14:51:50Z</time>
      </trkpt>
      <trkpt lat="46.51516" lon="6.62405">
        <ele>316.4</ele>
        <time>2013-11-27T14:51:54Z</time>
      </trkpt>
      <trkpt lat="46.51524" lon="6.62413">
        <ele>314</ele>
        <time>2013-11-27T14:52:03Z</time>
      </trkpt>
      <trkpt lat="46.51537" lon="6.62412">
        <ele>312.6</ele>
        <time>2013-11-27T14:52:07Z</time>
      </trkpt>
      <trkpt lat="46.51547" lon="6.62419">
        <ele>312.6</ele>
        <time>2013-11-27T14:52:12Z</time>
      </trkpt>
      <trkpt lat="46.51556" lon="6.6243">
        <ele>313</ele>
        <time>2013-11-27T14:52:16Z</time>
      </trkpt>
      <trkpt lat="46.51561" lon="6.62441">
        <ele>314.5</ele>
        <time>2013-11-27T14:52:20Z</time>
      </trkpt>
      <trkpt lat="46.51569" lon="6.62444">
        <ele>315.9</ele>
        <time>2013-11-27T14:52:48Z</time>
      </trkpt>
      <trkpt lat="46.51576" lon="6.62439">
        <ele>315.9</ele>
        <time>2013-11-27T14:54:39Z</time>
      </trkpt>
      <trkpt lat="46.51594" lon="6.62449">
        <ele>316.9</ele>
        <time>2013-11-27T14:54:51Z</time>
      </trkpt>
      <trkpt lat="46.51605" lon="6.62453">
        <ele>318.8</ele>
        <time>2013-11-27T14:55:03Z</time>
      </trkpt>
      <trkpt lat="46.51614" lon="6.62472">
        <ele>319.8</ele>
        <time>2013-11-27T14:55:15Z</time>
      </trkpt>
      <trkpt lat="46.51623" lon="6.62481">
        <ele>320.3</ele>
        <time>2013-11-27T14:55:49Z</time>
      </trkpt>
      <trkpt lat="46.51636" lon="6.62484">
        <ele>322.7</ele>
        <time>2013-11-27T14:55:54Z</time>
      </trkpt>
      <trkpt lat="46.51651" lon="6.62487">
        <ele>323.1</ele>
        <time>2013-11-27T14:56:00Z</time>
      </trkpt>
      <trkpt lat="46.51658" lon="6.62478">
        <ele>322.7</ele>
        <time>2013-11-27T14:56:04Z</time>
      </trkpt>
      <trkpt lat="46.51657" lon="6.62467">
        <ele>321.7</ele>
        <time>2013-11-27T14:56:07Z</time>
      </trkpt>
      <trkpt lat="46.51657" lon="6.62454">
        <ele>322.2</ele>
        <time>2013-11-27T14:56:12Z</time>
      </trkpt>
      <trkpt lat="46.51667" lon="6.62452">
        <ele>323.1</ele>
        <time>2013-11-27T14:56:17Z</time>
      </trkpt>
      <trkpt lat="46.51677" lon="6.62452">
        <ele>323.6</ele>
        <time>2013-11-27T14:56:22Z</time>
      </trkpt>
      <trkpt lat="46.51688" lon="6.62447">
        <ele>324.1</ele>
        <time>2013-11-27T14:56:26Z</time>
      </trkpt>
      <trkpt lat="46.51689" lon="6.62436">
        <ele>325.1</ele>
        <time>2013-11-27T14:56:29Z</time>
      </trkpt>
      <trkpt lat="46.51695" lon="6.62422">
        <ele>325.5</ele>
        <time>2013-11-27T14:56:33Z</time>
      </trkpt>
      <trkpt lat="46.51702" lon="6.62412">
        <ele>327</ele>
        <time>2013-11-27T14:56:37Z</time>
      </trkpt>
      <trkpt lat="46.51707" lon="6.62398">
        <ele>328</ele>
        <time>2013-11-27T14:56:42Z</time>
      </trkpt>
      <trkpt lat="46.5171" lon="6.62381">
        <ele>327</ele>
        <time>2013-11-27T14:56:47Z</time>
      </trkpt>
      <trkpt lat="46.51718" lon="6.62367">
        <ele>328.4</ele>
        <time>2013-11-27T14:56:51Z</time>
      </trkpt>
      <trkpt lat="46.51724" lon="6.62349">
        <ele>328</ele>
        <time>2013-11-27T14:56:55Z</time>
      </trkpt>
      <trkpt lat="46.5173" lon="6.62332">
        <ele>329.4</ele>
        <time>2013-11-27T14:56:59Z</time>
      </trkpt>
      <trkpt lat="46.51735" lon="6.62318">
        <ele>328.9</ele>
        <time>2013-11-27T14:57:03Z</time>
      </trkpt>
      <trkpt lat="46.51736" lon="6.623">
        <ele>331.8</ele>
        <time>2013-11-27T14:57:11Z</time>
      </trkpt>
      <trkpt lat="46.51737" lon="6.6228">
        <ele>331.8</ele>
        <time>2013-11-27T14:57:15Z</time>
      </trkpt>
      <trkpt lat="46.51742" lon="6.62264">
        <ele>330.8</ele>
        <time>2013-11-27T14:57:20Z</time>
      </trkpt>
      <trkpt lat="46.51753" lon="6.62267">
        <ele>329.9</ele>
        <time>2013-11-27T14:57:24Z</time>
      </trkpt>
      <trkpt lat="46.51765" lon="6.62261">
        <ele>332.3</ele>
        <time>2013-11-27T14:57:29Z</time>
      </trkpt>
      <trkpt lat="46.51772" lon="6.62249">
        <ele>332.3</ele>
        <time>2013-11-27T14:57:33Z</time>
      </trkpt>
      <trkpt lat="46.51777" lon="6.62235">
        <ele>332.8</ele>
        <time>2013-11-27T14:57:37Z</time>
      </trkpt>
      <trkpt lat="46.51783" lon="6.62221">
        <ele>333.2</ele>
        <time>2013-11-27T14:57:41Z</time>
      </trkpt>
      <trkpt lat="46.51788" lon="6.62204">
        <ele>333.7</ele>
        <time>2013-11-27T14:57:45Z</time>
      </trkpt>
      <trkpt lat="46.51792" lon="6.62187">
        <ele>333.7</ele>
        <time>2013-11-27T14:57:49Z</time>
      </trkpt>
      <trkpt lat="46.51795" lon="6.6217">
        <ele>333.7</ele>
        <time>2013-11-27T14:57:53Z</time>
      </trkpt>
      <trkpt lat="46.51794" lon="6.62154">
        <ele>334.2</ele>
        <time>2013-11-27T14:57:57Z</time>
      </trkpt>
      <trkpt lat="46.51802" lon="6.62142">
        <ele>332.8</ele>
        <time>2013-11-27T14:58:01Z</time>
      </trkpt>
      <trkpt lat="46.51807" lon="6.62127">
        <ele>334.2</ele>
        <time>2013-11-27T14:58:05Z</time>
      </trkpt>
      <trkpt lat="46.5181" lon="6.62111">
        <ele>333.2</ele>
        <time>2013-11-27T14:58:09Z</time>
      </trkpt>
      <trkpt lat="46.51813" lon="6.62098">
        <ele>333.7</ele>
        <time>2013-11-27T14:58:12Z</time>
      </trkpt>
      <trkpt lat="46.51816" lon="6.62078">
        <ele>334.2</ele>
        <time>2013-11-27T14:58:16Z</time>
      </trkpt>
      <trkpt lat="46.51821" lon="6.62063">
        <ele>334.7</ele>
        <time>2013-11-27T14:58:20Z</time>
      </trkpt>
      <trkpt lat="46.51821" lon="6.62044">
        <ele>335.2</ele>
        <time>2013-11-27T14:58:24Z</time>
      </trkpt>
      <trkpt lat="46.51822" lon="6.62026">
        <ele>334.7</ele>
        <time>2013-11-27T14:58:28Z</time>
      </trkpt>
      <trkpt lat="46.51827" lon="6.62009">
        <ele>335.6</ele>
        <time>2013-11-27T14:58:32Z</time>
      </trkpt>
      <trkpt lat="46.5183" lon="6.61995">
        <ele>334.7</ele>
        <time>2013-11-27T14:58:35Z</time>
      </trkpt>
      <trkpt lat="46.51833" lon="6.61981">
        <ele>336.1</ele>
        <time>2013-11-27T14:58:38Z</time>
      </trkpt>
      <trkpt lat="46.51835" lon="6.61968">
        <ele>335.2</ele>
        <time>2013-11-27T14:58:41Z</time>
      </trkpt>
      <trkpt lat="46.51838" lon="6.61953">
        <ele>335.2</ele>
        <time>2013-11-27T14:58:45Z</time>
      </trkpt>
      <trkpt lat="46.51843" lon="6.61941">
        <ele>334.7</ele>
        <time>2013-11-27T14:58:48Z</time>
      </trkpt>
      <trkpt lat="46.51847" lon="6.61927">
        <ele>335.2</ele>
        <time>2013-11-27T14:58:52Z</time>
      </trkpt>
      <trkpt lat="46.51855" lon="6.6192">
        <ele>335.6</ele>
        <time>2013-11-27T14:58:56Z</time>
      </trkpt>
      <trkpt lat="46.51863" lon="6.61912">
        <ele>338</ele>
        <time>2013-11-27T14:59:01Z</time>
      </trkpt>
      <trkpt lat="46.51873" lon="6.61908">
        <ele>338.5</ele>
        <time>2013-11-27T14:59:05Z</time>
      </trkpt>
      <trkpt lat="46.51881" lon="6.61894">
        <ele>340</ele>
        <time>2013-11-27T14:59:10Z</time>
      </trkpt>
      <trkpt lat="46.51885" lon="6.61881">
        <ele>341.4</ele>
        <time>2013-11-27T14:59:14Z</time>
      </trkpt>
      <trkpt lat="46.51888" lon="6.61868">
        <ele>342.9</ele>
        <time>2013-11-27T14:59:18Z</time>
      </trkpt>
      <trkpt lat="46.51891" lon="6.61853">
        <ele>343.8</ele>
        <time>2013-11-27T14:59:22Z</time>
      </trkpt>
      <trkpt lat="46.51895" lon="6.6184">
        <ele>345.2</ele>
        <time>2013-11-27T14:59:26Z</time>
      </trkpt>
      <trkpt lat="46.51905" lon="6.61832">
        <ele>346.2</ele>
        <time>2013-11-27T14:59:31Z</time>
      </trkpt>
      <trkpt lat="46.51911" lon="6.61824">
        <ele>345.7</ele>
        <time>2013-11-27T14:59:35Z</time>
      </trkpt>
      <trkpt lat="46.51909" lon="6.61808">
        <ele>346.2</ele>
        <time>2013-11-27T14:59:39Z</time>
      </trkpt>
      <trkpt lat="46.51918" lon="6.61798">
        <ele>345.7</ele>
        <time>2013-11-27T14:59:43Z</time>
      </trkpt>
      <trkpt lat="46.51924" lon="6.61789">
        <ele>346.7</ele>
        <time>2013-11-27T14:59:47Z</time>
      </trkpt>
      <trkpt lat="46.51931" lon="6.61775">
        <ele>347.6</ele>
        <time>2013-11-27T14:59:52Z</time>
      </trkpt>
      <trkpt lat="46.51938" lon="6.61763">
        <ele>349.1</ele>
        <time>2013-11-27T14:59:57Z</time>
      </trkpt>
      <trkpt lat="46.51945" lon="6.6175">
        <ele>349.1</ele>
        <time>2013-11-27T15:00:01Z</time>
      </trkpt>
      <trkpt lat="46.51952" lon="6.61736">
        <ele>349.6</ele>
        <time>2013-11-27T15:00:05Z</time>
      </trkpt>
      <trkpt lat="46.51959" lon="6.61723">
        <ele>350.1</ele>
        <time>2013-11-27T15:00:09Z</time>
      </trkpt>
      <trkpt lat="46.51964" lon="6.6171">
        <ele>350.5</ele>
        <time>2013-11-27T15:00:13Z</time>
      </trkpt>
      <trkpt lat="46.51967" lon="6.61696">
        <ele>351.5</ele>
        <time>2013-11-27T15:00:17Z</time>
      </trkpt>
      <trkpt lat="46.51968" lon="6.61681">
        <ele>352</ele>
        <time>2013-11-27T15:00:22Z</time>
      </trkpt>
      <trkpt lat="46.51967" lon="6.61665">
        <ele>352.9</ele>
        <time>2013-11-27T15:00:26Z</time>
      </trkpt>
      <trkpt lat="46.51965" lon="6.61649">
        <ele>353.4</ele>
        <time>2013-11-27T15:00:30Z</time>
      </trkpt>
      <trkpt lat="46.51961" lon="6.61637">
        <ele>354.9</ele>
        <time>2013-11-27T15:00:34Z</time>
      </trkpt>
      <trkpt lat="46.51957" lon="6.61623">
        <ele>354.9</ele>
        <time>2013-11-27T15:00:38Z</time>
      </trkpt>
      <trkpt lat="46.5195" lon="6.61608">
        <ele>354.9</ele>
        <time>2013-11-27T15:00:42Z</time>
      </trkpt>
      <trkpt lat="46.51945" lon="6.61595">
        <ele>354.4</ele>
        <time>2013-11-27T15:00:46Z</time>
      </trkpt>
      <trkpt lat="46.51936" lon="6.61583">
        <ele>353.4</ele>
        <time>2013-11-27T15:00:50Z</time>
      </trkpt>
      <trkpt lat="46.51929" lon="6.61569">
        <ele>355.3</ele>
        <time>2013-11-27T15:00:54Z</time>
      </trkpt>
      <trkpt lat="46.51924" lon="6.61554">
        <ele>354.9</ele>
        <time>2013-11-27T15:00:59Z</time>
      </trkpt>
      <trkpt lat="46.5192" lon="6.6154">
        <ele>356.3</ele>
        <time>2013-11-27T15:01:03Z</time>
      </trkpt>
      <trkpt lat="46.51915" lon="6.61526">
        <ele>356.3</ele>
        <time>2013-11-27T15:01:07Z</time>
      </trkpt>
      <trkpt lat="46.51906" lon="6.61514">
        <ele>354.9</ele>
        <time>2013-11-27T15:01:11Z</time>
      </trkpt>
      <trkpt lat="46.51898" lon="6.61506">
        <ele>356.3</ele>
        <time>2013-11-27T15:01:14Z</time>
      </trkpt>
      <trkpt lat="46.51888" lon="6.61499">
        <ele>354.9</ele>
        <time>2013-11-27T15:01:18Z</time>
      </trkpt>
      <trkpt lat="46.51886" lon="6.61486">
        <ele>356.8</ele>
        <time>2013-11-27T15:01:22Z</time>
      </trkpt>
      <trkpt lat="46.51893" lon="6.61477">
        <ele>357.3</ele>
        <time>2013-11-27T15:01:26Z</time>
      </trkpt>
      <trkpt lat="46.519" lon="6.61466">
        <ele>357.8</ele>
        <time>2013-11-27T15:01:30Z</time>
      </trkpt>
      <trkpt lat="46.51904" lon="6.61452">
        <ele>357.3</ele>
        <time>2013-11-27T15:01:34Z</time>
      </trkpt>
      <trkpt lat="46.51909" lon="6.61438">
        <ele>356.8</ele>
        <time>2013-11-27T15:01:38Z</time>
      </trkpt>
      <trkpt lat="46.51918" lon="6.61429">
        <ele>357.3</ele>
        <time>2013-11-27T15:01:42Z</time>
      </trkpt>
      <trkpt lat="46.51928" lon="6.61428">
        <ele>357.3</ele>
        <time>2013-11-27T15:01:46Z</time>
      </trkpt>
      <trkpt lat="46.51938" lon="6.61433">
        <ele>354.4</ele>
        <time>2013-11-27T15:01:50Z</time>
      </trkpt>
      <trkpt lat="46.51948" lon="6.6144">
        <ele>349.6</ele>
        <time>2013-11-27T15:01:55Z</time>
      </trkpt>
      <trkpt lat="46.51959" lon="6.61449">
        <ele>351.5</ele>
        <time>2013-11-27T15:01:59Z</time>
      </trkpt>
      <trkpt lat="46.51969" lon="6.61457">
        <ele>352</ele>
        <time>2013-11-27T15:02:02Z</time>
      </trkpt>
      <trkpt lat="46.51973" lon="6.6147">
        <ele>351.5</ele>
        <time>2013-11-27T15:02:06Z</time>
      </trkpt>
      <trkpt lat="46.51979" lon="6.61482">
        <ele>351.5</ele>
        <time>2013-11-27T15:02:10Z</time>
      </trkpt>
      <trkpt lat="46.5199" lon="6.61486">
        <ele>351</ele>
        <time>2013-11-27T15:02:14Z</time>
      </trkpt>
      <trkpt lat="46.52001" lon="6.61483">
        <ele>350.1</ele>
        <time>2013-11-27T15:02:19Z</time>
      </trkpt>
      <trkpt lat="46.52007" lon="6.61468">
        <ele>349.6</ele>
        <time>2013-11-27T15:02:23Z</time>
      </trkpt>
      <trkpt lat="46.5201" lon="6.61452">
        <ele>348.6</ele>
        <time>2013-11-27T15:02:27Z</time>
      </trkpt>
      <trkpt lat="46.52011" lon="6.61435">
        <ele>350.5</ele>
        <time>2013-11-27T15:02:31Z</time>
      </trkpt>
      <trkpt lat="46.52011" lon="6.61419">
        <ele>348.6</ele>
        <time>2013-11-27T15:02:35Z</time>
      </trkpt>
      <trkpt lat="46.52015" lon="6.61404">
        <ele>349.1</ele>
        <time>2013-11-27T15:02:39Z</time>
      </trkpt>
      <trkpt lat="46.52026" lon="6.61404">
        <ele>348.1</ele>
        <time>2013-11-27T15:02:43Z</time>
      </trkpt>
      <trkpt lat="46.52037" lon="6.61408">
        <ele>346.7</ele>
        <time>2013-11-27T15:02:47Z</time>
      </trkpt>
      <trkpt lat="46.52049" lon="6.61402">
        <ele>344.8</ele>
        <time>2013-11-27T15:02:51Z</time>
      </trkpt>
      <trkpt lat="46.52051" lon="6.61389">
        <ele>344.8</ele>
        <time>2013-11-27T15:02:55Z</time>
      </trkpt>
      <trkpt lat="46.52051" lon="6.61373">
        <ele>342.4</ele>
        <time>2013-11-27T15:03:01Z</time>
      </trkpt>
      <trkpt lat="46.52061" lon="6.61372">
        <ele>340.4</ele>
        <time>2013-11-27T15:03:08Z</time>
      </trkpt>
      <trkpt lat="46.52072" lon="6.61378">
        <ele>333.7</ele>
        <time>2013-11-27T15:03:20Z</time>
      </trkpt>
      <trkpt lat="46.52087" lon="6.61364">
        <ele>334.2</ele>
        <time>2013-11-27T15:03:27Z</time>
      </trkpt>
      <trkpt lat="46.52099" lon="6.61363">
        <ele>333.7</ele>
        <time>2013-11-27T15:03:32Z</time>
      </trkpt>
      <trkpt lat="46.52103" lon="6.61377">
        <ele>333.7</ele>
        <time>2013-11-27T15:03:36Z</time>
      </trkpt>
      <trkpt lat="46.52106" lon="6.61393">
        <ele>334.2</ele>
        <time>2013-11-27T15:03:40Z</time>
      </trkpt>
      <trkpt lat="46.52109" lon="6.61408">
        <ele>333.7</ele>
        <time>2013-11-27T15:03:44Z</time>
      </trkpt>
      <trkpt lat="46.52116" lon="6.6142">
        <ele>335.6</ele>
        <time>2013-11-27T15:03:49Z</time>
      </trkpt>
      <trkpt lat="46.52124" lon="6.61409">
        <ele>334.7</ele>
        <time>2013-11-27T15:03:54Z</time>
      </trkpt>
      <trkpt lat="46.52133" lon="6.61418">
        <ele>335.2</ele>
        <time>2013-11-27T15:05:00Z</time>
      </trkpt>
      <trkpt lat="46.52141" lon="6.61431">
        <ele>333.7</ele>
        <time>2013-11-27T15:05:04Z</time>
      </trkpt>
      <trkpt lat="46.52142" lon="6.61445">
        <ele>335.6</ele>
        <time>2013-11-27T15:05:08Z</time>
      </trkpt>
      <trkpt lat="46.52138" lon="6.6146">
        <ele>337.1</ele>
        <time>2013-11-27T15:05:12Z</time>
      </trkpt>
      <trkpt lat="46.52134" lon="6.61475">
        <ele>337.1</ele>
        <time>2013-11-27T15:05:16Z</time>
      </trkpt>
      <trkpt lat="46.52132" lon="6.61492">
        <ele>338.5</ele>
        <time>2013-11-27T15:05:21Z</time>
      </trkpt>
      <trkpt lat="46.5213" lon="6.61505">
        <ele>340</ele>
        <time>2013-11-27T15:05:25Z</time>
      </trkpt>
      <trkpt lat="46.52127" lon="6.61522">
        <ele>339.5</ele>
        <time>2013-11-27T15:05:29Z</time>
      </trkpt>
      <trkpt lat="46.52123" lon="6.61537">
        <ele>341.4</ele>
        <time>2013-11-27T15:05:32Z</time>
      </trkpt>
      <trkpt lat="46.5212" lon="6.61555">
        <ele>340.9</ele>
        <time>2013-11-27T15:05:37Z</time>
      </trkpt>
      <trkpt lat="46.5212" lon="6.61571">
        <ele>341.4</ele>
        <time>2013-11-27T15:05:41Z</time>
      </trkpt>
      <trkpt lat="46.52127" lon="6.61579">
        <ele>340.9</ele>
        <time>2013-11-27T15:05:45Z</time>
      </trkpt>
      <trkpt lat="46.52138" lon="6.61575">
        <ele>339</ele>
        <time>2013-11-27T15:05:49Z</time>
      </trkpt>
      <trkpt lat="46.52148" lon="6.61568">
        <ele>338.5</ele>
        <time>2013-11-27T15:05:53Z</time>
      </trkpt>
      <trkpt lat="46.52158" lon="6.6156">
        <ele>339</ele>
        <time>2013-11-27T15:05:57Z</time>
      </trkpt>
      <trkpt lat="46.5217" lon="6.61554">
        <ele>338.5</ele>
        <time>2013-11-27T15:06:02Z</time>
      </trkpt>
      <trkpt lat="46.52181" lon="6.61546">
        <ele>338.5</ele>
        <time>2013-11-27T15:06:06Z</time>
      </trkpt>
      <trkpt lat="46.52192" lon="6.61539">
        <ele>338</ele>
        <time>2013-11-27T15:06:10Z</time>
      </trkpt>
      <trkpt lat="46.52203" lon="6.6153">
        <ele>338</ele>
        <time>2013-11-27T15:06:14Z</time>
      </trkpt>
      <trkpt lat="46.52213" lon="6.61521">
        <ele>338</ele>
        <time>2013-11-27T15:06:19Z</time>
      </trkpt>
      <trkpt lat="46.52224" lon="6.61515">
        <ele>337.6</ele>
        <time>2013-11-27T15:06:23Z</time>
      </trkpt>
      <trkpt lat="46.52236" lon="6.61509">
        <ele>338.5</ele>
        <time>2013-11-27T15:06:27Z</time>
      </trkpt>
      <trkpt lat="46.52245" lon="6.61504">
        <ele>338</ele>
        <time>2013-11-27T15:06:31Z</time>
      </trkpt>
      <trkpt lat="46.52254" lon="6.61499">
        <ele>338</ele>
        <time>2013-11-27T15:06:35Z</time>
      </trkpt>
      <trkpt lat="46.52265" lon="6.61499">
        <ele>338.5</ele>
        <time>2013-11-27T15:06:39Z</time>
      </trkpt>
      <trkpt lat="46.52277" lon="6.615">
        <ele>338</ele>
        <time>2013-11-27T15:06:43Z</time>
      </trkpt>
      <trkpt lat="46.52287" lon="6.615">
        <ele>338</ele>
        <time>2013-11-27T15:06:48Z</time>
      </trkpt>
      <trkpt lat="46.52301" lon="6.61502">
        <ele>338</ele>
        <time>2013-11-27T15:06:53Z</time>
      </trkpt>
      <trkpt lat="46.52316" lon="6.61506">
        <ele>338.5</ele>
        <time>2013-11-27T15:06:58Z</time>
      </trkpt>
      <trkpt lat="46.52314" lon="6.61519">
        <ele>339.5</ele>
        <time>2013-11-27T15:07:05Z</time>
      </trkpt>
      <trkpt lat="46.52325" lon="6.61531">
        <ele>340.9</ele>
        <time>2013-11-27T15:07:11Z</time>
      </trkpt>
      <trkpt lat="46.52335" lon="6.61547">
        <ele>340.4</ele>
        <time>2013-11-27T15:07:16Z</time>
      </trkpt>
      <trkpt lat="46.52343" lon="6.6156">
        <ele>341.4</ele>
        <time>2013-11-27T15:07:21Z</time>
      </trkpt>
      <trkpt lat="46.52354" lon="6.61566">
        <ele>340.4</ele>
        <time>2013-11-27T15:07:30Z</time>
      </trkpt>
    </trkseg>
  </trk>
</gpx>